KWHP/WHP METAR and TAF weather

Enter ICAO airport designator
Station Type Date Time Source
KWHP METAR 2021/04/17 01:50 UTC NOAA

KWHP 170150Z 12004KT 10SM SKC 17/09 A2994


Station Type Date Time Source
KWHP Decoded METAR 2021/04/17 01:50 UTC NOAA

Los Angeles, Whiteman Airport, CA, United States (KWHP) 34-15N 118-24W
Apr 16, 2021 - 09:50 PM EDT / 2021.04.17 0150 UTC
Wind: from the ESE (120 degrees) at 5 MPH (4 KT):0
Visibility: 10 mile(s):0
Sky conditions: clear
Temperature: 62 F (17 C)
Dew Point: 48 F (9 C)
Relative Humidity: 59%
Pressure (altimeter): 29.94 in. Hg (1013 hPa)
ob: KWHP 170150Z 12004KT 10SM SKC 17/09 A2994
cycle: 2

Station Type Date Time Source
KWHP TAF UTC NOAA

Error!

Example: see airport list